createdAt,value
2023-01-11T04:22:18.175Z,-10.55
2023-01-11T04:24:52.107Z,-10.44
2023-01-11T04:36:01.841Z,-10.47
2023-01-11T04:47:10.876Z,-10.56
2023-01-11T04:48:02.402Z,-10.38
2023-01-11T04:55:48.239Z,-10.47
2023-01-11T05:01:34.552Z,-10.75
2023-01-11T05:04:31.461Z,-10.69
2023-01-11T05:07:13.073Z,-10.68
2023-01-11T05:09:47.187Z,-10.62
2023-01-11T05:12:18.424Z,-10.65
2023-01-11T05:14:53.788Z,-10.59
2023-01-11T05:17:33.155Z,-10.81
2023-01-11T05:20:00.997Z,-10.77
2023-01-11T05:22:29.044Z,-10.67
2023-01-11T05:25:01.344Z,-10.83
2023-01-11T05:27:30.199Z,-10.84
2023-01-11T05:30:05.140Z,-10.71
2023-01-11T05:32:37.720Z,-10.74
2023-01-11T05:35:11.319Z,-10.66
2023-01-11T05:37:46.932Z,-10.74
2023-01-11T05:40:14.270Z,-10.68
2023-01-11T05:46:53.948Z,-10.75
2023-01-11T05:49:40.779Z,-10.56
2023-01-11T06:14:12.241Z,-10.42
2023-01-11T06:34:25.004Z,-10.10
2023-01-11T06:42:47.801Z,-9.92
2023-01-11T07:00:02.540Z,-9.67
2023-01-11T07:07:24.799Z,-9.59
2023-01-11T07:10:58.004Z,-9.48
2023-01-11T07:14:31.025Z,-9.53
2023-01-11T07:25:29.945Z,-9.17
2023-01-11T07:29:01.703Z,-9.21
2023-01-11T07:32:01.866Z,-9.08
2023-01-11T07:39:01.628Z,-9.08
2023-01-11T07:42:46.416Z,-9.14
2023-01-11T07:52:09.439Z,-9.10
2023-01-11T07:55:14.517Z,-8.95
2023-01-11T07:57:57.428Z,-8.94
2023-01-11T08:00:43.075Z,-8.87
2023-01-11T08:03:31.289Z,-8.80
2023-01-11T08:09:29.007Z,-8.82
2023-01-11T08:16:55.973Z,-8.98
2023-01-11T08:20:03.958Z,-8.83
2023-01-11T08:23:17.567Z,-8.65
2023-01-11T08:26:33.637Z,-8.73
2023-01-11T08:29:04.364Z,-8.65
2023-01-11T08:31:34.837Z,-8.42
2023-01-11T08:34:43.999Z,-8.49
2023-01-11T08:37:20.012Z,-8.43
2023-01-11T08:40:51.983Z,-8.34
2023-01-11T08:43:47.639Z,-8.22
2023-01-11T08:46:52.550Z,-8.36
2023-01-11T08:54:23.533Z,-8.17
2023-01-11T09:02:14.676Z,-8.10
2023-01-11T09:05:56.978Z,-7.99
2023-01-11T09:08:54.143Z,-8.26
2023-01-11T09:23:23.448Z,-8.07
2023-01-11T09:42:32.655Z,-8.29
2023-01-11T09:48:36.905Z,-8.32
2023-01-11T09:51:55.159Z,-8.39
2023-01-11T09:54:49.494Z,-8.33
2023-01-11T10:01:27.599Z,-8.24
2023-01-11T10:05:04.520Z,-8.01
2023-01-11T10:18:29.556Z,-7.97
2023-01-11T10:22:23.159Z,-7.93
2023-01-11T10:29:20.193Z,-8.01
2023-01-11T10:41:34.256Z,-7.84
2023-01-11T10:44:38.075Z,-7.81
2023-01-11T10:47:21.049Z,-7.91
2023-01-11T10:51:02.053Z,-7.75
2023-01-11T10:59:17.667Z,-7.71
2023-01-11T11:03:51.170Z,-7.64
2023-01-11T12:26:41.333Z,-8.10
2023-01-11T12:34:52.493Z,-8.11
2023-01-11T12:37:54.455Z,-8.12
2023-01-11T12:49:08.337Z,-8.06
2023-01-11T12:52:44.591Z,-8.05
2023-01-11T13:00:13.258Z,-8.15
2023-01-11T13:03:46.193Z,-8.25
2023-01-11T13:11:43.905Z,-8.50
2023-01-11T13:14:43.189Z,-8.42
2023-01-11T13:17:50.795Z,-8.45
2023-01-11T13:21:01.264Z,-8.55
2023-01-11T13:24:12.552Z,-8.61
2023-01-11T13:27:36.441Z,-8.52
2023-01-11T13:30:25.170Z,-8.53
2023-01-11T13:49:36.077Z,-8.45
2023-01-11T13:52:37.260Z,-8.52
2023-01-11T13:55:51.337Z,-8.38
2023-01-11T13:59:01.789Z,-8.32
2023-01-11T14:02:03.216Z,-8.26
2023-01-11T14:05:01.339Z,-8.23
2023-01-11T14:07:45.380Z,-8.19
2023-01-11T14:10:24.059Z,-8.13
2023-01-11T14:13:12.472Z,-8.13
2023-01-11T14:15:58.804Z,-8.09
2023-01-11T14:18:32.135Z,-8.08
2023-01-11T14:21:05.243Z,-8.10
2023-01-11T14:23:47.610Z,-8.11
2023-01-11T14:26:14.691Z,-8.12
2023-01-11T14:29:15.478Z,-8.11
2023-01-11T14:32:07.545Z,-8.11
2023-01-11T14:35:21.562Z,-8.08
2023-01-11T14:38:16.041Z,-8.07
2023-01-11T14:41:28.375Z,-8.08
2023-01-11T14:48:18.510Z,-8.16
2023-01-11T14:59:32.380Z,-8.20
2023-01-11T15:02:13.075Z,-8.20
2023-01-11T15:08:14.599Z,-8.17
2023-01-11T15:17:37.888Z,-8.13
2023-01-11T15:20:38.875Z,-8.12
2023-01-11T15:23:52.066Z,-8.15
2023-01-11T15:30:30.994Z,-8.25
2023-01-11T15:34:12.694Z,-8.28
2023-01-11T15:41:21.979Z,-8.29
2023-01-11T15:58:32.260Z,-8.30
2023-01-11T17:02:30.793Z,-7.58
2023-01-11T17:05:27.432Z,-7.57
2023-01-11T17:07:56.989Z,-7.54
2023-01-11T17:10:35.832Z,-7.51
2023-01-11T17:13:50.423Z,-7.47
2023-01-11T17:16:28.412Z,-7.41
2023-01-11T17:19:09.565Z,-7.37
2023-01-11T17:23:56.227Z,-7.33
2023-01-11T17:27:00.158Z,-7.40
2023-01-11T17:29:58.590Z,-7.41
2023-01-11T17:32:52.460Z,-7.42
2023-01-11T17:35:31.731Z,-7.40
2023-01-11T17:38:02.889Z,-7.38
2023-01-11T17:40:32.555Z,-7.37
2023-01-11T17:43:46.563Z,-7.37
2023-01-11T17:46:18.696Z,-7.40
2023-01-11T17:49:04.991Z,-7.41
2023-01-11T17:51:43.572Z,-7.39
2023-01-11T17:54:25.361Z,-7.37
2023-01-11T17:56:59.707Z,-7.32
2023-01-11T17:59:30.391Z,-7.31
2023-01-11T18:02:00.237Z,-7.31
2023-01-11T18:04:49.922Z,-7.31
2023-01-11T18:07:27.533Z,-7.29
2023-01-11T18:10:03.601Z,-7.29
2023-01-11T18:12:46.273Z,-7.27
2023-01-11T18:15:37.669Z,-7.26
2023-01-11T18:18:26.366Z,-7.27
2023-01-11T18:21:44.616Z,-7.30
2023-01-11T18:24:43.539Z,-7.32
2023-01-11T18:27:22.749Z,-7.32
2023-01-11T18:29:56.044Z,-7.33
2023-01-11T18:32:25.650Z,-7.32
2023-01-11T18:35:04.428Z,-7.29
2023-01-11T18:37:37.860Z,-7.25
2023-01-11T18:40:40.067Z,-7.22
2023-01-11T18:43:29.281Z,-7.19
2023-01-11T18:45:59.262Z,-7.19
2023-01-11T18:49:06.065Z,-7.18
2023-01-11T18:52:10.132Z,-7.21
2023-01-11T18:57:51.842Z,-7.20
2023-01-11T19:30:46.211Z,-7.31
2023-01-11T19:33:46.532Z,-7.32
2023-01-11T19:36:35.008Z,-7.33
2023-01-11T19:39:05.676Z,-7.35
2023-01-11T19:42:24.955Z,-7.36
2023-01-11T19:48:59.530Z,-7.34
2023-01-11T19:52:01.306Z,-7.33
2023-01-11T19:54:50.210Z,-7.34
2023-01-11T19:58:02.833Z,-7.35
2023-01-11T20:00:45.284Z,-7.30
2023-01-11T20:04:02.842Z,-7.27
2023-01-11T20:06:37.457Z,-7.25
2023-01-11T20:09:12.589Z,-7.24
2023-01-11T20:12:27.274Z,-7.24
2023-01-11T20:15:45.550Z,-7.19
2023-01-11T20:18:13.124Z,-7.18
2023-01-11T20:21:03.358Z,-7.16
2023-01-11T20:23:59.579Z,-7.14
2023-01-11T20:26:59.194Z,-7.15
2023-01-11T20:33:53.784Z,-7.14
2023-01-11T20:37:38.856Z,-7.09
2023-01-11T20:40:14.461Z,-7.09
2023-01-11T20:43:03.170Z,-7.12
2023-01-11T20:56:06.550Z,-7.16
2023-01-11T20:58:52.405Z,-7.17
2023-01-11T21:01:50.449Z,-7.19
2023-01-11T21:04:31.769Z,-7.20
2023-01-11T21:07:06.277Z,-7.21
2023-01-11T21:10:02.046Z,-7.23
2023-01-11T21:12:45.116Z,-7.23
2023-01-11T21:15:16.295Z,-7.22
2023-01-11T21:17:43.608Z,-7.24
2023-01-11T21:20:20.079Z,-7.23
2023-01-11T21:23:34.771Z,-7.22
2023-01-11T21:26:08.863Z,-7.21
2023-01-11T21:31:52.654Z,-7.22
2023-01-11T21:34:24.065Z,-7.21
2023-01-11T21:37:22.546Z,-7.19
2023-01-11T21:39:57.796Z,-7.15
2023-01-11T21:43:18.937Z,-7.12
2023-01-11T21:45:59.701Z,-7.09
2023-01-11T21:48:30.013Z,-7.05
2023-01-11T21:51:01.603Z,-7.03
2023-01-11T21:53:43.784Z,-6.99
2023-01-11T21:56:14.991Z,-6.98
2023-01-11T21:58:46.474Z,-6.98
2023-01-11T22:01:19.568Z,-6.95
2023-01-11T22:03:49.937Z,-6.87
2023-01-11T22:06:20.401Z,-6.81
2023-01-11T22:08:47.992Z,-6.78
2023-01-11T22:11:17.275Z,-6.75
2023-01-11T22:13:46.032Z,-6.72
2023-01-11T22:16:16.220Z,-6.73
2023-01-11T22:18:46.298Z,-6.73
2023-01-11T22:21:18.278Z,-6.72
2023-01-11T22:23:48.000Z,-6.71
2023-01-11T22:26:16.850Z,-6.72
2023-01-11T22:29:02.764Z,-6.71
2023-01-11T22:31:31.152Z,-6.71
2023-01-11T22:33:58.902Z,-6.70
2023-01-11T22:36:29.104Z,-6.68
2023-01-11T22:38:59.479Z,-6.66
2023-01-11T22:41:28.985Z,-6.64
2023-01-11T22:43:56.232Z,-6.62
2023-01-11T22:46:27.378Z,-6.61
2023-01-11T22:48:57.532Z,-6.57
2023-01-11T22:51:25.681Z,-6.53
2023-01-11T22:53:53.976Z,-6.48
2023-01-11T22:56:23.907Z,-6.46
2023-01-11T22:58:51.217Z,-6.40
2023-01-11T23:01:21.360Z,-6.39
2023-01-11T23:03:49.061Z,-6.39
2023-01-11T23:06:20.834Z,-6.40
2023-01-11T23:08:52.233Z,-6.41
2023-01-11T23:11:40.390Z,-6.40
2023-01-11T23:14:08.826Z,-6.41
2023-01-11T23:16:36.878Z,-6.42
2023-01-11T23:19:05.588Z,-6.42
2023-01-11T23:21:32.817Z,-6.42
2023-01-11T23:24:03.727Z,-6.43
2023-01-11T23:26:30.814Z,-6.42
2023-01-11T23:28:57.854Z,-6.39
2023-01-11T23:31:26.677Z,-6.37
2023-01-11T23:33:55.172Z,-6.34
2023-01-11T23:36:23.016Z,-6.36
2023-01-11T23:38:51.197Z,-6.38
2023-01-11T23:41:37.663Z,-6.41
2023-01-11T23:44:05.956Z,-6.42
2023-01-11T23:46:51.681Z,-6.41
2023-01-11T23:49:19.282Z,-6.40
2023-01-11T23:51:46.617Z,-6.40
2023-01-11T23:54:13.696Z,-6.40
2023-01-11T23:56:40.954Z,-6.42
2023-01-11T23:59:08.216Z,-6.41
